createdAt,value
2022-08-10T00:00:10.484Z,2.08
2022-08-10T00:02:37.171Z,2.30
2022-08-10T00:05:04.834Z,2.35
2022-08-10T00:07:31.547Z,2.35
2022-08-10T00:09:58.600Z,2.10
2022-08-10T00:12:53.571Z,2.33
2022-08-10T00:15:52.623Z,2.30
2022-08-10T00:18:02.247Z,2.50
2022-08-10T00:20:29.597Z,2.40
2022-08-10T00:22:57.947Z,2.25
2022-08-10T00:25:25.308Z,2.35
2022-08-10T00:28:03.159Z,2.20
2022-08-10T00:30:31.548Z,2.50
2022-08-10T00:32:58.402Z,2.67
2022-08-10T00:35:25.584Z,2.47
2022-08-10T00:37:56.476Z,2.38
2022-08-10T00:40:37.180Z,2.33
2022-08-10T00:43:05.780Z,2.38
2022-08-10T00:45:33.248Z,2.80
2022-08-10T00:48:00.010Z,2.53
2022-08-10T00:50:27.226Z,2.40
2022-08-10T00:52:54.131Z,2.65
2022-08-10T00:55:21.314Z,2.70
2022-08-10T00:57:55.484Z,2.28
2022-08-10T01:00:23.980Z,2.63
2022-08-10T01:02:51.644Z,2.72
2022-08-10T01:05:20.352Z,2.38
2022-08-10T01:08:12.183Z,2.33
2022-08-10T01:11:00.947Z,2.67
2022-08-10T01:13:36.269Z,2.60
2022-08-10T01:16:17.997Z,2.72
2022-08-10T01:19:11.895Z,2.75
2022-08-10T01:22:16.630Z,2.22
2022-08-10T01:25:21.537Z,2.75
2022-08-10T01:28:26.823Z,2.22
2022-08-10T01:30:56.151Z,2.78
2022-08-10T01:33:32.035Z,2.67
2022-08-10T01:38:47.732Z,2.95
2022-08-10T01:41:24.101Z,2.70
2022-08-10T01:44:03.737Z,3.15
2022-08-10T01:46:32.427Z,3.03
2022-08-10T01:49:00.748Z,2.60
2022-08-10T01:51:33.072Z,2.35
2022-08-10T01:54:10.650Z,2.78
2022-08-10T01:56:46.262Z,2.60
2022-08-10T01:59:21.080Z,3.15
2022-08-10T02:01:55.932Z,2.72
2022-08-10T02:04:25.889Z,2.63
2022-08-10T02:06:54.636Z,2.63
2022-08-10T02:09:31.217Z,2.53
2022-08-10T02:12:08.175Z,2.38
2022-08-10T02:14:44.915Z,2.88
2022-08-10T02:17:59.031Z,2.60
2022-08-10T02:20:19.099Z,2.83
2022-08-10T02:22:52.667Z,2.80
2022-08-10T02:25:42.254Z,2.90
2022-08-10T02:28:09.479Z,2.75
2022-08-10T02:30:37.410Z,2.75
2022-08-10T02:33:05.895Z,3.30
2022-08-10T02:35:53.759Z,3.10
2022-08-10T02:38:59.626Z,3.25
2022-08-10T02:45:15.317Z,2.90
2022-08-10T02:45:26.673Z,2.75
2022-08-10T02:48:00.364Z,2.77
2022-08-10T02:50:34.739Z,2.67
2022-08-10T02:53:55.333Z,2.97
2022-08-10T02:56:15.597Z,2.88
2022-08-10T02:58:50.768Z,3.03
2022-08-10T03:01:21.442Z,2.72
2022-08-10T03:03:52.696Z,2.40
2022-08-10T03:06:24.676Z,2.83
2022-08-10T03:08:53.293Z,2.60
2022-08-10T03:12:35.530Z,2.80
2022-08-10T03:14:12.279Z,2.83
2022-08-10T03:16:39.841Z,2.83
2022-08-10T03:20:35.109Z,2.88
2022-08-10T03:21:56.882Z,2.80
2022-08-10T03:24:33.421Z,2.75
2022-08-10T03:27:01.402Z,2.40
2022-08-10T03:29:29.470Z,2.50
2022-08-10T03:31:56.926Z,2.50
2022-08-10T03:34:32.893Z,2.50
2022-08-10T03:37:00.348Z,2.60
2022-08-10T03:39:27.983Z,2.55
2022-08-10T03:41:58.865Z,2.58
2022-08-10T03:44:30.112Z,2.85
2022-08-10T03:47:00.552Z,2.35
2022-08-10T03:49:30.138Z,3.00
2022-08-10T03:51:58.550Z,3.08
2022-08-10T03:54:27.125Z,2.50
2022-08-10T03:56:54.017Z,2.88
2022-08-10T03:59:21.856Z,2.85
2022-08-10T04:02:44.211Z,2.72
2022-08-10T04:04:38.892Z,2.95
2022-08-10T04:07:06.042Z,2.83
2022-08-10T04:09:53.901Z,2.78
2022-08-10T04:12:21.723Z,3.15
2022-08-10T04:14:50.950Z,2.60
2022-08-10T04:18:02.901Z,2.78
2022-08-10T04:20:30.014Z,2.55
2022-08-10T04:23:06.474Z,3.08
2022-08-10T04:25:34.534Z,2.60
2022-08-10T04:28:03.371Z,2.60
2022-08-10T04:30:32.189Z,2.92
2022-08-10T04:33:02.134Z,2.80
2022-08-10T04:35:30.186Z,2.97
2022-08-10T04:37:59.195Z,2.78
2022-08-10T04:40:30.513Z,2.83
2022-08-10T04:43:12.218Z,2.63
2022-08-10T04:45:48.497Z,2.58
2022-08-10T04:48:40.361Z,2.35
2022-08-10T04:51:17.865Z,2.55
2022-08-10T04:54:04.664Z,2.50
2022-08-10T04:56:39.072Z,2.20
2022-08-10T04:59:07.722Z,2.25
2022-08-10T05:02:21.314Z,2.28
2022-08-10T05:04:34.592Z,1.98
2022-08-10T05:07:11.274Z,1.90
2022-08-10T05:10:03.583Z,1.85
2022-08-10T05:12:41.300Z,1.85
2022-08-10T05:15:13.118Z,1.85
2022-08-10T05:18:03.246Z,1.70
2022-08-10T05:20:29.429Z,2.65
2022-08-10T05:22:56.154Z,1.70
2022-08-10T05:25:23.206Z,1.60
2022-08-10T05:27:51.050Z,1.55
2022-08-10T05:30:22.139Z,1.85
2022-08-10T05:32:55.670Z,1.40
2022-08-10T05:35:25.723Z,1.73
2022-08-10T05:38:09.005Z,1.52
2022-08-10T05:40:46.049Z,1.60
2022-08-10T05:43:17.052Z,1.67
2022-08-10T05:48:55.067Z,1.50
2022-08-10T05:51:20.523Z,1.73
2022-08-10T05:54:02.618Z,1.38
2022-08-10T05:56:56.572Z,1.45
2022-08-10T06:00:35.180Z,1.50
2022-08-10T06:02:32.897Z,1.60
2022-08-10T06:04:58.898Z,1.40
2022-08-10T06:07:29.684Z,1.70
2022-08-10T06:10:00.204Z,1.70
2022-08-10T06:12:30.698Z,1.75
2022-08-10T06:15:10.406Z,1.90
2022-08-10T06:17:59.048Z,1.70
2022-08-10T06:20:35.912Z,1.85
2022-08-10T06:23:04.387Z,1.60
2022-08-10T06:26:09.855Z,1.38
2022-08-10T06:28:19.930Z,1.95
2022-08-10T06:30:49.476Z,1.67
2022-08-10T06:33:18.798Z,1.73
2022-08-10T06:35:48.394Z,2.17
2022-08-10T06:38:16.761Z,1.88
2022-08-10T06:40:46.518Z,1.70
2022-08-10T06:43:17.041Z,1.35
2022-08-10T06:46:07.470Z,1.60
2022-08-10T06:48:40.666Z,1.77
2022-08-10T06:51:13.944Z,1.38
2022-08-10T06:53:53.268Z,1.60
2022-08-10T06:56:36.828Z,1.85
2022-08-10T06:59:21.405Z,1.50
2022-08-10T07:01:53.422Z,1.48
2022-08-10T07:04:44.393Z,1.90
2022-08-10T07:07:17.371Z,1.60
2022-08-10T07:09:45.638Z,1.50
2022-08-10T07:12:14.828Z,1.67
2022-08-10T07:14:45.092Z,1.50
2022-08-10T07:17:16.034Z,1.50
2022-08-10T07:19:50.065Z,1.52
2022-08-10T07:23:01.738Z,1.70
2022-08-10T07:25:16.686Z,2.10
2022-08-10T07:28:00.511Z,1.35
2022-08-10T07:30:36.196Z,1.33
2022-08-10T07:33:06.692Z,1.40
2022-08-10T07:35:42.322Z,1.35
2022-08-10T07:38:23.931Z,1.52
2022-08-10T07:40:55.076Z,1.60
2022-08-10T07:43:27.545Z,1.42
2022-08-10T07:45:57.409Z,1.35
2022-08-10T07:48:34.739Z,1.60
2022-08-10T07:51:02.955Z,1.35
2022-08-10T07:53:38.623Z,2.30
2022-08-10T07:56:16.810Z,1.70
2022-08-10T07:58:57.550Z,1.60
2022-08-10T08:01:29.472Z,1.48
2022-08-10T08:04:05.531Z,1.52
2022-08-10T08:06:42.404Z,1.40
2022-08-10T08:09:12.524Z,1.35
2022-08-10T08:14:12.614Z,1.50
2022-08-10T08:16:43.560Z,1.70
2022-08-10T08:19:35.567Z,1.42
2022-08-10T08:24:10.982Z,1.65
2022-08-10T08:24:48.370Z,1.27
2022-08-10T08:27:21.061Z,1.45
2022-08-10T08:29:50.511Z,1.42
2022-08-10T08:32:22.194Z,1.48
2022-08-10T08:34:54.180Z,1.45
2022-08-10T08:38:29.908Z,1.48
2022-08-10T08:40:28.874Z,1.17
2022-08-10T08:43:18.009Z,1.48
2022-08-10T08:46:06.932Z,1.25
2022-08-10T08:48:57.326Z,1.10
2022-08-10T08:52:18.598Z,1.20
2022-08-10T08:54:57.878Z,1.10
2022-08-10T08:58:03.737Z,0.90
2022-08-10T09:00:48.101Z,1.30
2022-08-10T09:03:14.779Z,1.02
2022-08-10T09:06:06.469Z,1.35
2022-08-10T09:09:06.827Z,1.10
2022-08-10T09:12:01.627Z,1.00
2022-08-10T09:14:52.793Z,1.05
2022-08-10T09:17:46.618Z,1.30
2022-08-10T09:20:39.234Z,1.45
2022-08-10T09:24:02.198Z,1.83
2022-08-10T09:26:38.097Z,1.10
2022-08-10T09:29:12.840Z,1.20
2022-08-10T09:31:55.934Z,1.33
2022-08-10T09:36:24.064Z,1.20
2022-08-10T09:38:15.656Z,1.30
2022-08-10T09:41:03.928Z,0.80
2022-08-10T09:47:00.893Z,1.35
2022-08-10T09:49:55.363Z,1.08
2022-08-10T09:52:58.814Z,1.25
2022-08-10T09:56:17.607Z,0.90
2022-08-10T09:58:39.479Z,1.25
2022-08-10T10:01:57.736Z,0.82
2022-08-10T10:04:12.027Z,1.02
2022-08-10T10:06:57.809Z,1.00
2022-08-10T10:09:34.890Z,1.10
2022-08-10T10:12:24.239Z,1.00
2022-08-10T10:15:43.026Z,1.20
2022-08-10T10:18:28.936Z,0.97
2022-08-10T10:21:01.796Z,0.85
2022-08-10T10:24:21.716Z,1.10
2022-08-10T10:27:02.417Z,1.10
2022-08-10T10:29:59.296Z,0.98
2022-08-10T10:32:26.652Z,1.10
2022-08-10T10:35:31.544Z,1.10
2022-08-10T10:38:10.683Z,0.85
2022-08-10T10:41:19.542Z,1.08
2022-08-10T10:44:31.209Z,1.60
2022-08-10T10:47:28.801Z,1.35
2022-08-10T10:50:07.832Z,0.90
2022-08-10T10:52:43.194Z,0.93
2022-08-10T10:56:15.474Z,0.80
2022-08-10T10:58:30.446Z,1.00
2022-08-10T11:01:03.403Z,1.00
2022-08-10T11:03:39.710Z,1.08
2022-08-10T11:06:14.879Z,1.00
2022-08-10T11:08:52.315Z,0.95
2022-08-10T11:12:00.195Z,0.85
2022-08-10T11:14:37.240Z,0.95
2022-08-10T11:17:25.619Z,1.20
2022-08-10T11:20:04.157Z,1.15
2022-08-10T11:22:40.254Z,0.88
2022-08-10T11:25:28.441Z,0.90
2022-08-10T11:28:13.287Z,0.95
2022-08-10T11:30:55.485Z,1.10
2022-08-10T11:34:03.903Z,0.93
2022-08-10T11:36:51.509Z,1.00
2022-08-10T11:39:33.236Z,1.00
2022-08-10T11:42:36.070Z,1.10
2022-08-10T11:45:21.899Z,0.80
2022-08-10T11:47:53.893Z,0.95
2022-08-10T11:50:26.262Z,0.90
2022-08-10T11:53:14.975Z,1.05
2022-08-10T11:55:49.349Z,1.20
2022-08-10T11:58:40.264Z,1.25
2022-08-10T12:01:10.739Z,0.77
2022-08-10T12:03:40.045Z,0.88
2022-08-10T12:06:13.543Z,1.00
2022-08-10T12:10:07.520Z,1.08
2022-08-10T12:11:35.964Z,0.93
2022-08-10T12:16:55.519Z,1.00
2022-08-10T12:19:58.996Z,1.13
2022-08-10T12:22:34.891Z,0.90
2022-08-10T12:25:07.509Z,1.20
2022-08-10T12:27:43.993Z,0.85
2022-08-10T12:30:15.908Z,1.33
2022-08-10T12:32:55.231Z,1.17
2022-08-10T12:36:17.312Z,1.42
2022-08-10T12:39:03.021Z,1.20
2022-08-10T12:41:44.936Z,1.10
2022-08-10T12:44:18.499Z,0.80
2022-08-10T12:47:11.807Z,0.90
2022-08-10T12:50:26.656Z,0.90
2022-08-10T12:52:52.862Z,1.10
2022-08-10T12:55:20.937Z,1.08
2022-08-10T12:57:52.790Z,1.10
2022-08-10T13:00:20.242Z,0.82
2022-08-10T13:02:49.250Z,0.98
2022-08-10T13:05:17.462Z,1.10
2022-08-10T13:08:04.102Z,1.13
2022-08-10T13:10:41.559Z,0.98
2022-08-10T13:13:14.994Z,1.20
2022-08-10T13:15:50.628Z,1.10
2022-08-10T13:18:29.458Z,1.35
2022-08-10T13:21:02.815Z,1.42
2022-08-10T13:23:33.216Z,0.98
2022-08-10T13:26:02.642Z,0.95
2022-08-10T13:28:49.675Z,0.93
2022-08-10T13:31:35.704Z,1.17
2022-08-10T13:34:43.625Z,0.98
2022-08-10T13:37:09.465Z,1.05
2022-08-10T13:39:58.001Z,0.93
2022-08-10T13:42:32.258Z,1.08
2022-08-10T13:45:11.416Z,1.70
2022-08-10T13:47:48.370Z,1.10
2022-08-10T13:50:34.983Z,0.90
2022-08-10T13:53:11.526Z,1.13
2022-08-10T13:55:56.747Z,1.00
2022-08-10T13:58:33.743Z,0.80
2022-08-10T14:01:10.040Z,1.00
2022-08-10T14:03:40.076Z,1.02
2022-08-10T14:06:12.733Z,1.30
2022-08-10T14:08:41.413Z,1.35
2022-08-10T14:11:14.410Z,0.80
2022-08-10T14:13:50.965Z,0.93
2022-08-10T14:16:19.747Z,1.08
2022-08-10T14:18:49.772Z,0.87
2022-08-10T14:21:16.878Z,1.00
2022-08-10T14:23:53.015Z,1.10
2022-08-10T14:26:28.774Z,1.30
2022-08-10T14:29:04.714Z,0.98
2022-08-10T14:31:34.928Z,1.15
2022-08-10T14:34:04.734Z,1.00
2022-08-10T14:37:06.102Z,1.20
2022-08-10T14:39:43.283Z,1.10
2022-08-10T14:42:25.562Z,0.95
2022-08-10T14:45:02.158Z,0.98
2022-08-10T14:47:53.954Z,1.00
2022-08-10T14:50:32.261Z,1.17
2022-08-10T14:53:17.284Z,0.77
2022-08-10T14:55:58.489Z,0.93
2022-08-10T14:58:38.562Z,0.98
2022-08-10T15:01:08.227Z,1.08
2022-08-10T15:06:30.849Z,0.80
2022-08-10T15:09:19.345Z,1.23
2022-08-10T15:12:13.389Z,1.17
2022-08-10T15:14:43.222Z,1.02
2022-08-10T15:17:14.059Z,0.90
2022-08-10T15:20:04.078Z,1.00
2022-08-10T15:22:41.526Z,1.10
2022-08-10T15:25:18.624Z,1.02
2022-08-10T15:27:54.891Z,1.20
2022-08-10T15:30:31.088Z,0.93
2022-08-10T15:33:21.654Z,1.20
2022-08-10T15:36:28.086Z,0.95
2022-08-10T15:39:16.624Z,1.17
2022-08-10T15:42:08.717Z,1.00
2022-08-10T15:44:45.095Z,1.02
2022-08-10T15:47:23.309Z,0.90
2022-08-10T15:50:06.713Z,0.82
2022-08-10T15:53:01.194Z,1.02
2022-08-10T15:55:59.484Z,0.98
2022-08-10T15:58:44.064Z,0.95
2022-08-10T16:02:14.543Z,1.10
2022-08-10T16:04:08.663Z,1.10
2022-08-10T16:06:44.694Z,1.10
2022-08-10T16:10:24.841Z,1.17
2022-08-10T16:12:29.985Z,1.02
2022-08-10T16:15:00.225Z,1.20
2022-08-10T16:17:28.057Z,0.93
2022-08-10T16:19:58.454Z,1.00
2022-08-10T16:22:35.777Z,1.00
2022-08-10T16:25:14.121Z,1.33
2022-08-10T16:27:43.077Z,1.08
2022-08-10T16:30:11.307Z,0.98
2022-08-10T16:32:39.468Z,1.10
2022-08-10T16:35:10.611Z,0.90
2022-08-10T16:37:58.307Z,1.40
2022-08-10T16:40:28.516Z,1.02
2022-08-10T16:42:57.419Z,1.52
2022-08-10T16:45:31.042Z,1.20
2022-08-10T16:47:58.290Z,1.40
2022-08-10T16:50:32.575Z,1.15
2022-08-10T16:53:02.526Z,1.13
2022-08-10T16:55:48.767Z,1.00
2022-08-10T16:58:21.522Z,0.93
2022-08-10T17:00:50.362Z,1.00
2022-08-10T17:04:07.891Z,0.90
2022-08-10T17:06:17.774Z,1.15
2022-08-10T17:08:47.959Z,1.13
2022-08-10T17:11:17.402Z,1.00
2022-08-10T17:13:44.400Z,1.30
2022-08-10T17:16:13.636Z,0.88
2022-08-10T17:18:43.556Z,0.82
2022-08-10T17:21:28.065Z,0.88
2022-08-10T17:24:00.187Z,1.10
2022-08-10T17:26:37.143Z,1.35
2022-08-10T17:29:53.369Z,0.90
2022-08-10T17:32:14.849Z,1.00
2022-08-10T17:34:47.284Z,0.88
2022-08-10T17:37:20.026Z,1.25
2022-08-10T17:39:59.049Z,1.02
2022-08-10T17:42:29.110Z,1.00
2022-08-10T17:44:57.997Z,1.55
2022-08-10T17:47:27.640Z,1.20
2022-08-10T17:49:57.010Z,1.05
2022-08-10T17:52:26.788Z,1.08
2022-08-10T17:57:27.778Z,1.00
2022-08-10T17:59:55.525Z,1.15
2022-08-10T18:02:27.007Z,1.02
2022-08-10T18:04:57.555Z,1.00
2022-08-10T18:07:39.044Z,1.02
2022-08-10T18:10:10.842Z,1.23
2022-08-10T18:12:47.769Z,1.10
2022-08-10T18:15:21.977Z,1.02
2022-08-10T18:17:58.365Z,0.90
2022-08-10T18:20:32.967Z,1.00
2022-08-10T18:23:01.757Z,0.98
2022-08-10T18:25:33.230Z,0.90
2022-08-10T18:28:08.494Z,1.27
2022-08-10T18:30:45.955Z,1.00
2022-08-10T18:33:15.021Z,1.00
2022-08-10T18:35:43.856Z,1.52
2022-08-10T18:38:14.045Z,1.30
2022-08-10T18:40:45.008Z,0.98
2022-08-10T18:44:06.753Z,1.17
2022-08-10T18:46:06.961Z,1.13
2022-08-10T18:48:40.801Z,1.23
2022-08-10T18:51:09.134Z,1.40
2022-08-10T18:53:50.907Z,1.20
2022-08-10T18:56:49.367Z,1.10
2022-08-10T18:59:40.816Z,1.27
2022-08-10T19:02:28.851Z,1.10
2022-08-10T19:05:30.356Z,1.10
2022-08-10T19:08:35.433Z,1.60
2022-08-10T19:11:20.451Z,1.30
2022-08-10T19:13:55.538Z,1.20
2022-08-10T19:16:47.891Z,1.13
2022-08-10T19:19:43.403Z,1.08
2022-08-10T19:22:26.716Z,1.13
2022-08-10T19:24:57.472Z,1.50
2022-08-10T19:27:59.410Z,1.38
2022-08-10T19:30:45.158Z,1.00
2022-08-10T19:33:23.313Z,1.20
2022-08-10T19:36:11.657Z,1.48
2022-08-10T19:39:13.333Z,1.40
2022-08-10T19:42:11.679Z,1.80
2022-08-10T19:45:00.693Z,1.13
2022-08-10T19:47:53.408Z,1.40
2022-08-10T19:50:35.579Z,1.60
2022-08-10T19:53:26.812Z,1.25
2022-08-10T19:56:34.029Z,1.00
2022-08-10T19:59:15.982Z,1.40
2022-08-10T20:02:04.178Z,1.30
2022-08-10T20:04:36.418Z,1.00
2022-08-10T20:07:10.072Z,1.15
2022-08-10T20:10:01.520Z,1.30
2022-08-10T20:12:42.590Z,1.40
2022-08-10T20:15:42.142Z,1.60
2022-08-10T20:18:35.463Z,1.40
2022-08-10T20:21:19.620Z,1.80
2022-08-10T20:24:10.191Z,1.60
2022-08-10T20:26:49.181Z,1.60
2022-08-10T20:29:25.028Z,1.90
2022-08-10T20:32:23.088Z,1.55
2022-08-10T20:34:53.257Z,1.63
2022-08-10T20:40:23.377Z,1.70
2022-08-10T20:43:24.850Z,1.98
2022-08-10T20:46:15.798Z,2.33
2022-08-10T20:49:11.910Z,1.50
2022-08-10T20:51:59.297Z,1.80
2022-08-10T20:54:48.968Z,1.65
2022-08-10T20:57:56.916Z,1.80
2022-08-10T21:00:18.193Z,1.77
2022-08-10T21:03:07.064Z,1.58
2022-08-10T21:06:07.959Z,1.50
2022-08-10T21:08:56.391Z,1.40
2022-08-10T21:11:46.342Z,1.58
2022-08-10T21:14:27.380Z,1.30
2022-08-10T21:17:43.423Z,1.60
2022-08-10T21:20:30.666Z,1.50
2022-08-10T21:23:05.543Z,1.90
2022-08-10T21:25:44.583Z,1.73
2022-08-10T21:28:14.416Z,1.50
2022-08-10T21:31:07.030Z,1.65
2022-08-10T21:33:40.022Z,1.60
2022-08-10T21:36:17.414Z,1.60
2022-08-10T21:39:13.623Z,1.70
2022-08-10T21:42:28.487Z,2.65
2022-08-10T21:45:59.173Z,1.60
2022-08-10T21:52:16.499Z,1.60
2022-08-10T21:55:13.647Z,1.58
2022-08-10T21:58:10.546Z,1.75
2022-08-10T22:01:01.166Z,1.75
2022-08-10T22:03:47.162Z,1.55
2022-08-10T22:06:33.925Z,1.60
2022-08-10T22:09:27.384Z,1.95
2022-08-10T22:12:31.019Z,2.03
2022-08-10T22:15:24.259Z,1.77
2022-08-10T22:18:33.284Z,1.88
2022-08-10T22:21:45.305Z,1.80
2022-08-10T22:24:34.919Z,1.88
2022-08-10T22:27:47.178Z,2.15
2022-08-10T22:30:36.894Z,1.92
2022-08-10T22:33:25.605Z,2.00
2022-08-10T22:36:40.058Z,1.77
2022-08-10T22:40:10.788Z,1.80
2022-08-10T22:43:10.822Z,2.03
2022-08-10T22:46:10.942Z,1.60
2022-08-10T22:49:01.317Z,1.92
2022-08-10T22:51:31.103Z,1.70
2022-08-10T22:54:31.440Z,1.98
2022-08-10T22:57:19.522Z,2.38
2022-08-10T22:59:47.757Z,1.80
2022-08-10T23:02:28.563Z,2.03
2022-08-10T23:05:12.163Z,1.85
2022-08-10T23:07:52.274Z,2.08
2022-08-10T23:10:24.697Z,2.17
2022-08-10T23:13:06.593Z,2.15
2022-08-10T23:15:55.804Z,2.17
2022-08-10T23:18:58.969Z,1.90
2022-08-10T23:22:02.818Z,2.10
2022-08-10T23:24:31.012Z,2.17
2022-08-10T23:26:59.890Z,1.92
2022-08-10T23:30:03.785Z,2.03
2022-08-10T23:32:32.001Z,1.95
2022-08-10T23:36:29.660Z,2.00
2022-08-10T23:37:52.624Z,2.25
2022-08-10T23:40:20.324Z,2.08
2022-08-10T23:42:51.111Z,2.25
2022-08-10T23:45:23.092Z,2.15
2022-08-10T23:47:56.151Z,2.38
2022-08-10T23:50:25.166Z,1.98
2022-08-10T23:52:56.383Z,2.13
2022-08-10T23:55:30.054Z,1.95
2022-08-10T23:58:10.983Z,2.28
